sensor_id;sensor_type;location;lat;lon;timestamp;P1;durP1;ratioP1;P2;durP2;ratioP2
12110;SDS011;6119;52.372;8.990;2023-02-28T00:02:39;7.17;;;3.40;;
12110;SDS011;6119;52.372;8.990;2023-02-28T00:05:28;5.03;;;3.50;;
12110;SDS011;6119;52.372;8.990;2023-02-28T00:08:15;6.03;;;3.50;;
12110;SDS011;6119;52.372;8.990;2023-02-28T00:11:02;4.87;;;3.50;;
12110;SDS011;6119;52.372;8.990;2023-02-28T00:13:49;5.53;;;3.67;;
12110;SDS011;6119;52.372;8.990;2023-02-28T00:16:36;4.43;;;3.40;;
12110;SDS011;6119;52.372;8.990;2023-02-28T00:19:22;6.20;;;3.90;;
12110;SDS011;6119;52.372;8.990;2023-02-28T00:22:11;4.07;;;3.33;;
12110;SDS011;6119;52.372;8.990;2023-02-28T00:24:58;4.53;;;3.50;;
12110;SDS011;6119;52.372;8.990;2023-02-28T00:27:44;7.53;;;3.87;;
12110;SDS011;6119;52.372;8.990;2023-02-28T00:30:31;5.47;;;3.67;;
12110;SDS011;6119;52.372;8.990;2023-02-28T00:33:18;6.43;;;3.70;;
12110;SDS011;6119;52.372;8.990;2023-02-28T00:36:05;6.70;;;4.30;;
12110;SDS011;6119;52.372;8.990;2023-02-28T00:38:55;6.10;;;4.40;;
12110;SDS011;6119;52.372;8.990;2023-02-28T00:41:41;9.53;;;5.07;;
12110;SDS011;6119;52.372;8.990;2023-02-28T00:44:27;5.70;;;4.27;;
12110;SDS011;6119;52.372;8.990;2023-02-28T00:47:14;7.30;;;4.60;;
12110;SDS011;6119;52.372;8.990;2023-02-28T00:50:01;8.17;;;4.00;;
12110;SDS011;6119;52.372;8.990;2023-02-28T00:52:47;7.07;;;4.73;;
12110;SDS011;6119;52.372;8.990;2023-02-28T00:55:35;5.97;;;4.40;;
12110;SDS011;6119;52.372;8.990;2023-02-28T00:58:22;7.83;;;4.70;;
12110;SDS011;6119;52.372;8.990;2023-02-28T01:01:08;7.17;;;5.00;;
12110;SDS011;6119;52.372;8.990;2023-02-28T01:03:55;6.20;;;4.03;;
12110;SDS011;6119;52.372;8.990;2023-02-28T01:06:42;5.30;;;3.90;;
12110;SDS011;6119;52.372;8.990;2023-02-28T01:09:28;9.27;;;4.63;;
12110;SDS011;6119;52.372;8.990;2023-02-28T01:12:16;6.67;;;4.10;;
12110;SDS011;6119;52.372;8.990;2023-02-28T01:15:03;6.57;;;4.07;;
12110;SDS011;6119;52.372;8.990;2023-02-28T01:17:50;6.47;;;4.20;;
12110;SDS011;6119;52.372;8.990;2023-02-28T01:20:36;8.07;;;4.17;;
12110;SDS011;6119;52.372;8.990;2023-02-28T01:23:23;5.07;;;3.77;;
12110;SDS011;6119;52.372;8.990;2023-02-28T01:26:10;6.33;;;4.00;;
12110;SDS011;6119;52.372;8.990;2023-02-28T01:29:01;7.57;;;4.57;;
12110;SDS011;6119;52.372;8.990;2023-02-28T01:31:47;4.63;;;3.30;;
12110;SDS011;6119;52.372;8.990;2023-02-28T01:34:34;7.33;;;4.10;;
12110;SDS011;6119;52.372;8.990;2023-02-28T01:37:21;9.17;;;4.13;;
12110;SDS011;6119;52.372;8.990;2023-02-28T01:40:08;7.17;;;4.10;;
12110;SDS011;6119;52.372;8.990;2023-02-28T01:42:55;5.80;;;3.77;;
12110;SDS011;6119;52.372;8.990;2023-02-28T01:45:43;5.47;;;3.60;;
12110;SDS011;6119;52.372;8.990;2023-02-28T01:48:30;5.30;;;3.97;;
12110;SDS011;6119;52.372;8.990;2023-02-28T01:51:20;5.67;;;4.17;;
12110;SDS011;6119;52.372;8.990;2023-02-28T01:54:11;4.93;;;3.80;;
12110;SDS011;6119;52.372;8.990;2023-02-28T01:57:03;6.73;;;3.97;;
12110;SDS011;6119;52.372;8.990;2023-02-28T01:59:52;7.53;;;4.07;;
12110;SDS011;6119;52.372;8.990;2023-02-28T02:02:45;6.70;;;4.20;;
12110;SDS011;6119;52.372;8.990;2023-02-28T02:05:34;6.63;;;3.77;;
12110;SDS011;6119;52.372;8.990;2023-02-28T02:08:24;7.53;;;3.70;;
12110;SDS011;6119;52.372;8.990;2023-02-28T02:11:13;5.83;;;3.70;;
12110;SDS011;6119;52.372;8.990;2023-02-28T02:14:16;5.70;;;3.90;;
12110;SDS011;6119;52.372;8.990;2023-02-28T02:17:20;7.60;;;4.00;;
12110;SDS011;6119;52.372;8.990;2023-02-28T02:20:21;5.30;;;3.47;;
12110;SDS011;6119;52.372;8.990;2023-02-28T02:23:43;4.57;;;3.50;;
12110;SDS011;6119;52.372;8.990;2023-02-28T02:26:54;4.80;;;3.70;;
12110;SDS011;6119;52.372;8.990;2023-02-28T02:30:09;4.93;;;3.50;;
12110;SDS011;6119;52.372;8.990;2023-02-28T02:33:23;5.37;;;3.53;;
12110;SDS011;6119;52.372;8.990;2023-02-28T02:36:23;4.40;;;3.20;;
12110;SDS011;6119;52.372;8.990;2023-02-28T02:39:13;8.20;;;3.53;;
12110;SDS011;6119;52.372;8.990;2023-02-28T02:42:04;8.60;;;3.67;;
12110;SDS011;6119;52.372;8.990;2023-02-28T02:45:00;6.43;;;3.60;;
12110;SDS011;6119;52.372;8.990;2023-02-28T02:47:52;5.03;;;3.33;;
12110;SDS011;6119;52.372;8.990;2023-02-28T02:50:42;5.03;;;3.63;;
12110;SDS011;6119;52.372;8.990;2023-02-28T02:53:34;3.47;;;3.00;;
12110;SDS011;6119;52.372;8.990;2023-02-28T02:56:26;6.50;;;3.87;;
12110;SDS011;6119;52.372;8.990;2023-02-28T02:59:17;4.60;;;3.40;;
12110;SDS011;6119;52.372;8.990;2023-02-28T03:02:07;6.33;;;3.40;;
12110;SDS011;6119;52.372;8.990;2023-02-28T03:04:59;6.70;;;3.60;;
12110;SDS011;6119;52.372;8.990;2023-02-28T03:07:48;5.50;;;3.20;;
12110;SDS011;6119;52.372;8.990;2023-02-28T03:10:37;5.27;;;3.70;;
12110;SDS011;6119;52.372;8.990;2023-02-28T03:20:07;4.73;;;3.03;;
12110;SDS011;6119;52.372;8.990;2023-02-28T03:23:03;4.50;;;3.03;;
12110;SDS011;6119;52.372;8.990;2023-02-28T03:26:01;4.47;;;3.27;;
12110;SDS011;6119;52.372;8.990;2023-02-28T03:28:52;4.40;;;2.97;;
12110;SDS011;6119;52.372;8.990;2023-02-28T03:31:43;8.13;;;2.87;;
12110;SDS011;6119;52.372;8.990;2023-02-28T03:34:35;3.47;;;3.10;;
12110;SDS011;6119;52.372;8.990;2023-02-28T03:37:23;5.23;;;3.50;;
12110;SDS011;6119;52.372;8.990;2023-02-28T03:40:14;4.67;;;3.23;;
12110;SDS011;6119;52.372;8.990;2023-02-28T03:43:07;5.33;;;3.00;;
12110;SDS011;6119;52.372;8.990;2023-02-28T03:45:58;3.87;;;2.90;;
12110;SDS011;6119;52.372;8.990;2023-02-28T03:48:49;4.63;;;3.33;;
12110;SDS011;6119;52.372;8.990;2023-02-28T03:51:41;4.20;;;2.97;;
12110;SDS011;6119;52.372;8.990;2023-02-28T03:54:30;4.10;;;3.10;;
12110;SDS011;6119;52.372;8.990;2023-02-28T03:57:21;4.47;;;2.93;;
12110;SDS011;6119;52.372;8.990;2023-02-28T04:00:14;4.90;;;3.20;;
12110;SDS011;6119;52.372;8.990;2023-02-28T04:03:04;3.70;;;3.03;;
12110;SDS011;6119;52.372;8.990;2023-02-28T04:05:52;6.87;;;3.13;;
12110;SDS011;6119;52.372;8.990;2023-02-28T04:08:40;4.20;;;3.23;;
12110;SDS011;6119;52.372;8.990;2023-02-28T04:11:27;4.20;;;2.77;;
12110;SDS011;6119;52.372;8.990;2023-02-28T04:14:19;4.47;;;2.90;;
12110;SDS011;6119;52.372;8.990;2023-02-28T04:17:07;3.63;;;3.00;;
12110;SDS011;6119;52.372;8.990;2023-02-28T04:19:54;4.17;;;2.70;;
12110;SDS011;6119;52.372;8.990;2023-02-28T04:22:42;5.57;;;3.33;;
12110;SDS011;6119;52.372;8.990;2023-02-28T04:25:28;4.63;;;3.27;;
12110;SDS011;6119;52.372;8.990;2023-02-28T04:28:15;4.37;;;3.07;;
12110;SDS011;6119;52.372;8.990;2023-02-28T04:31:03;4.10;;;3.00;;
12110;SDS011;6119;52.372;8.990;2023-02-28T04:33:52;4.83;;;3.07;;
12110;SDS011;6119;52.372;8.990;2023-02-28T04:36:39;4.10;;;3.13;;
12110;SDS011;6119;52.372;8.990;2023-02-28T04:39:25;4.30;;;2.67;;
12110;SDS011;6119;52.372;8.990;2023-02-28T04:42:12;3.47;;;2.63;;
12110;SDS011;6119;52.372;8.990;2023-02-28T04:44:59;4.93;;;3.53;;
12110;SDS011;6119;52.372;8.990;2023-02-28T04:47:45;4.07;;;2.63;;
12110;SDS011;6119;52.372;8.990;2023-02-28T04:50:33;4.70;;;3.20;;
12110;SDS011;6119;52.372;8.990;2023-02-28T04:53:20;3.00;;;2.70;;
12110;SDS011;6119;52.372;8.990;2023-02-28T04:56:07;3.63;;;2.77;;
12110;SDS011;6119;52.372;8.990;2023-02-28T04:58:56;3.73;;;3.10;;
12110;SDS011;6119;52.372;8.990;2023-02-28T05:01:45;3.50;;;2.50;;
12110;SDS011;6119;52.372;8.990;2023-02-28T05:04:32;7.10;;;2.47;;
12110;SDS011;6119;52.372;8.990;2023-02-28T05:07:21;3.87;;;2.97;;
12110;SDS011;6119;52.372;8.990;2023-02-28T05:10:08;3.33;;;2.70;;
12110;SDS011;6119;52.372;8.990;2023-02-28T05:12:56;3.60;;;2.93;;
12110;SDS011;6119;52.372;8.990;2023-02-28T05:15:42;3.80;;;3.00;;
12110;SDS011;6119;52.372;8.990;2023-02-28T05:18:29;3.73;;;2.87;;
12110;SDS011;6119;52.372;8.990;2023-02-28T05:21:21;3.87;;;3.10;;
12110;SDS011;6119;52.372;8.990;2023-02-28T05:24:12;3.87;;;2.87;;
12110;SDS011;6119;52.372;8.990;2023-02-28T05:26:59;3.50;;;3.17;;
12110;SDS011;6119;52.372;8.990;2023-02-28T05:29:45;5.57;;;3.53;;
12110;SDS011;6119;52.372;8.990;2023-02-28T05:32:32;7.63;;;3.13;;
12110;SDS011;6119;52.372;8.990;2023-02-28T05:35:19;6.37;;;3.23;;
12110;SDS011;6119;52.372;8.990;2023-02-28T05:38:05;7.63;;;3.00;;
12110;SDS011;6119;52.372;8.990;2023-02-28T05:40:54;5.10;;;3.17;;
12110;SDS011;6119;52.372;8.990;2023-02-28T05:43:40;3.33;;;2.90;;
12110;SDS011;6119;52.372;8.990;2023-02-28T05:46:27;5.10;;;3.13;;
12110;SDS011;6119;52.372;8.990;2023-02-28T05:49:13;4.90;;;3.50;;
12110;SDS011;6119;52.372;8.990;2023-02-28T05:51:59;4.00;;;3.10;;
12110;SDS011;6119;52.372;8.990;2023-02-28T05:54:46;4.27;;;3.23;;
12110;SDS011;6119;52.372;8.990;2023-02-28T05:57:34;4.63;;;2.80;;
12110;SDS011;6119;52.372;8.990;2023-02-28T06:00:21;3.70;;;3.17;;
12110;SDS011;6119;52.372;8.990;2023-02-28T06:03:08;4.57;;;3.23;;
12110;SDS011;6119;52.372;8.990;2023-02-28T06:05:55;3.83;;;3.43;;
12110;SDS011;6119;52.372;8.990;2023-02-28T06:08:41;3.30;;;2.70;;
12110;SDS011;6119;52.372;8.990;2023-02-28T06:11:29;3.50;;;3.00;;
12110;SDS011;6119;52.372;8.990;2023-02-28T06:14:18;4.43;;;3.30;;
12110;SDS011;6119;52.372;8.990;2023-02-28T06:17:05;3.47;;;2.73;;
12110;SDS011;6119;52.372;8.990;2023-02-28T06:19:52;4.13;;;2.93;;
12110;SDS011;6119;52.372;8.990;2023-02-28T06:22:38;6.47;;;3.17;;
12110;SDS011;6119;52.372;8.990;2023-02-28T06:25:25;5.73;;;3.40;;
12110;SDS011;6119;52.372;8.990;2023-02-28T06:28:12;4.63;;;3.40;;
12110;SDS011;6119;52.372;8.990;2023-02-28T06:31:04;3.57;;;3.07;;
12110;SDS011;6119;52.372;8.990;2023-02-28T06:33:52;6.40;;;3.60;;
12110;SDS011;6119;52.372;8.990;2023-02-28T06:36:39;6.43;;;3.50;;
12110;SDS011;6119;52.372;8.990;2023-02-28T06:39:26;6.13;;;3.33;;
12110;SDS011;6119;52.372;8.990;2023-02-28T06:42:12;3.67;;;3.20;;
12110;SDS011;6119;52.372;8.990;2023-02-28T06:44:59;7.77;;;3.27;;
12110;SDS011;6119;52.372;8.990;2023-02-28T06:47:49;5.10;;;3.03;;
12110;SDS011;6119;52.372;8.990;2023-02-28T06:50:37;4.73;;;3.60;;
12110;SDS011;6119;52.372;8.990;2023-02-28T06:53:24;4.90;;;3.57;;
12110;SDS011;6119;52.372;8.990;2023-02-28T06:56:11;7.77;;;5.57;;
12110;SDS011;6119;52.372;8.990;2023-02-28T06:58:59;9.37;;;5.50;;
12110;SDS011;6119;52.372;8.990;2023-02-28T07:01:46;11.87;;;6.50;;
12110;SDS011;6119;52.372;8.990;2023-02-28T07:04:34;10.73;;;6.23;;
12110;SDS011;6119;52.372;8.990;2023-02-28T07:07:20;12.57;;;6.40;;
12110;SDS011;6119;52.372;8.990;2023-02-28T07:10:08;9.40;;;5.20;;
12110;SDS011;6119;52.372;8.990;2023-02-28T07:12:56;8.90;;;4.80;;
12110;SDS011;6119;52.372;8.990;2023-02-28T07:15:43;9.37;;;4.90;;
12110;SDS011;6119;52.372;8.990;2023-02-28T07:18:29;8.27;;;5.47;;
12110;SDS011;6119;52.372;8.990;2023-02-28T07:21:17;11.43;;;5.80;;
12110;SDS011;6119;52.372;8.990;2023-02-28T07:24:04;10.10;;;6.03;;
12110;SDS011;6119;52.372;8.990;2023-02-28T07:26:51;11.07;;;6.00;;
12110;SDS011;6119;52.372;8.990;2023-02-28T07:29:37;10.03;;;5.57;;
12110;SDS011;6119;52.372;8.990;2023-02-28T07:32:24;14.13;;;7.43;;
12110;SDS011;6119;52.372;8.990;2023-02-28T07:35:11;9.20;;;5.10;;
12110;SDS011;6119;52.372;8.990;2023-02-28T07:38:01;6.87;;;5.07;;
12110;SDS011;6119;52.372;8.990;2023-02-28T07:40:48;11.70;;;6.67;;
12110;SDS011;6119;52.372;8.990;2023-02-28T07:43:35;8.97;;;4.97;;
12110;SDS011;6119;52.372;8.990;2023-02-28T07:46:21;14.27;;;6.20;;
12110;SDS011;6119;52.372;8.990;2023-02-28T07:49:08;11.07;;;4.90;;
12110;SDS011;6119;52.372;8.990;2023-02-28T07:51:55;9.57;;;5.83;;
12110;SDS011;6119;52.372;8.990;2023-02-28T07:54:43;9.70;;;5.00;;
12110;SDS011;6119;52.372;8.990;2023-02-28T07:57:29;8.10;;;6.13;;
12110;SDS011;6119;52.372;8.990;2023-02-28T08:00:19;6.87;;;4.80;;
12110;SDS011;6119;52.372;8.990;2023-02-28T08:03:07;6.53;;;4.67;;
12110;SDS011;6119;52.372;8.990;2023-02-28T08:05:56;7.10;;;4.37;;
12110;SDS011;6119;52.372;8.990;2023-02-28T08:08:43;9.33;;;4.30;;
12110;SDS011;6119;52.372;8.990;2023-02-28T08:11:31;7.07;;;4.00;;
12110;SDS011;6119;52.372;8.990;2023-02-28T08:14:19;5.33;;;4.00;;
12110;SDS011;6119;52.372;8.990;2023-02-28T08:17:05;8.17;;;4.57;;
12110;SDS011;6119;52.372;8.990;2023-02-28T08:19:52;6.10;;;4.53;;
12110;SDS011;6119;52.372;8.990;2023-02-28T08:22:39;6.53;;;4.50;;
12110;SDS011;6119;52.372;8.990;2023-02-28T08:25:29;5.53;;;4.37;;
12110;SDS011;6119;52.372;8.990;2023-02-28T08:28:17;9.87;;;5.30;;
12110;SDS011;6119;52.372;8.990;2023-02-28T08:31:06;10.33;;;6.47;;
12110;SDS011;6119;52.372;8.990;2023-02-28T08:33:54;11.37;;;7.17;;
12110;SDS011;6119;52.372;8.990;2023-02-28T08:36:43;12.07;;;6.30;;
12110;SDS011;6119;52.372;8.990;2023-02-28T08:39:30;8.27;;;5.37;;
12110;SDS011;6119;52.372;8.990;2023-02-28T08:42:20;6.37;;;4.53;;
12110;SDS011;6119;52.372;8.990;2023-02-28T08:45:08;5.37;;;4.10;;
12110;SDS011;6119;52.372;8.990;2023-02-28T08:47:55;5.07;;;3.97;;
12110;SDS011;6119;52.372;8.990;2023-02-28T08:50:41;5.97;;;4.10;;
12110;SDS011;6119;52.372;8.990;2023-02-28T08:53:34;7.17;;;4.40;;
12110;SDS011;6119;52.372;8.990;2023-02-28T08:56:21;5.47;;;4.33;;
12110;SDS011;6119;52.372;8.990;2023-02-28T08:59:08;6.80;;;4.67;;
12110;SDS011;6119;52.372;8.990;2023-02-28T09:01:56;5.23;;;4.40;;
12110;SDS011;6119;52.372;8.990;2023-02-28T09:04:43;5.10;;;3.83;;
12110;SDS011;6119;52.372;8.990;2023-02-28T09:07:30;4.70;;;3.63;;
12110;SDS011;6119;52.372;8.990;2023-02-28T09:10:16;6.27;;;4.37;;
12110;SDS011;6119;52.372;8.990;2023-02-28T09:13:03;7.87;;;3.70;;
12110;SDS011;6119;52.372;8.990;2023-02-28T09:15:50;5.80;;;3.67;;
12110;SDS011;6119;52.372;8.990;2023-02-28T09:18:38;4.53;;;3.27;;
12110;SDS011;6119;52.372;8.990;2023-02-28T09:21:25;4.50;;;3.03;;
12110;SDS011;6119;52.372;8.990;2023-02-28T09:24:13;5.07;;;3.40;;
12110;SDS011;6119;52.372;8.990;2023-02-28T09:26:59;4.73;;;3.10;;
12110;SDS011;6119;52.372;8.990;2023-02-28T09:29:49;5.27;;;3.27;;
12110;SDS011;6119;52.372;8.990;2023-02-28T09:32:35;5.07;;;3.57;;
12110;SDS011;6119;52.372;8.990;2023-02-28T09:35:23;6.27;;;3.10;;
12110;SDS011;6119;52.372;8.990;2023-02-28T09:38:11;3.00;;;2.70;;
12110;SDS011;6119;52.372;8.990;2023-02-28T09:40:58;5.80;;;2.70;;
12110;SDS011;6119;52.372;8.990;2023-02-28T09:43:46;3.57;;;2.90;;
12110;SDS011;6119;52.372;8.990;2023-02-28T09:46:37;5.07;;;3.13;;
12110;SDS011;6119;52.372;8.990;2023-02-28T09:49:28;10.73;;;2.70;;
12110;SDS011;6119;52.372;8.990;2023-02-28T09:52:24;5.73;;;2.60;;
12110;SDS011;6119;52.372;8.990;2023-02-28T09:55:18;2.80;;;2.50;;
12110;SDS011;6119;52.372;8.990;2023-02-28T09:58:09;5.00;;;2.93;;
12110;SDS011;6119;52.372;8.990;2023-02-28T10:01:05;4.13;;;2.87;;
12110;SDS011;6119;52.372;8.990;2023-02-28T10:03:57;2.60;;;2.40;;
12110;SDS011;6119;52.372;8.990;2023-02-28T10:06:49;5.77;;;2.60;;
12110;SDS011;6119;52.372;8.990;2023-02-28T10:09:38;3.10;;;2.27;;
12110;SDS011;6119;52.372;8.990;2023-02-28T10:12:25;2.30;;;2.07;;
12110;SDS011;6119;52.372;8.990;2023-02-28T10:15:15;3.80;;;2.17;;
12110;SDS011;6119;52.372;8.990;2023-02-28T10:18:03;3.70;;;1.90;;
12110;SDS011;6119;52.372;8.990;2023-02-28T10:20:56;3.23;;;1.90;;
12110;SDS011;6119;52.372;8.990;2023-02-28T10:23:43;1.80;;;1.67;;
12110;SDS011;6119;52.372;8.990;2023-02-28T10:26:33;3.33;;;1.80;;
12110;SDS011;6119;52.372;8.990;2023-02-28T10:29:22;2.50;;;1.70;;
12110;SDS011;6119;52.372;8.990;2023-02-28T10:32:08;2.80;;;1.43;;
12110;SDS011;6119;52.372;8.990;2023-02-28T10:35:01;2.10;;;1.63;;
12110;SDS011;6119;52.372;8.990;2023-02-28T10:37:57;1.50;;;1.40;;
12110;SDS011;6119;52.372;8.990;2023-02-28T10:40:45;2.43;;;1.80;;
12110;SDS011;6119;52.372;8.990;2023-02-28T10:43:33;3.20;;;1.60;;
12110;SDS011;6119;52.372;8.990;2023-02-28T10:46:20;3.93;;;1.93;;
12110;SDS011;6119;52.372;8.990;2023-02-28T10:49:12;3.07;;;1.60;;
12110;SDS011;6119;52.372;8.990;2023-02-28T10:52:03;1.70;;;1.57;;
12110;SDS011;6119;52.372;8.990;2023-02-28T10:54:50;3.13;;;1.43;;
12110;SDS011;6119;52.372;8.990;2023-02-28T10:58:00;2.13;;;1.40;;
12110;SDS011;6119;52.372;8.990;2023-02-28T11:00:48;1.93;;;1.70;;
12110;SDS011;6119;52.372;8.990;2023-02-28T11:03:34;1.83;;;1.70;;
12110;SDS011;6119;52.372;8.990;2023-02-28T11:06:22;1.50;;;1.40;;
12110;SDS011;6119;52.372;8.990;2023-02-28T11:09:18;2.30;;;1.70;;
12110;SDS011;6119;52.372;8.990;2023-02-28T11:12:20;2.30;;;1.60;;
12110;SDS011;6119;52.372;8.990;2023-02-28T11:15:18;1.70;;;1.60;;
12110;SDS011;6119;52.372;8.990;2023-02-28T11:18:18;4.33;;;2.00;;
12110;SDS011;6119;52.372;8.990;2023-02-28T11:21:09;2.00;;;1.50;;
12110;SDS011;6119;52.372;8.990;2023-02-28T11:24:02;2.70;;;1.80;;
12110;SDS011;6119;52.372;8.990;2023-02-28T11:26:52;1.57;;;1.47;;
12110;SDS011;6119;52.372;8.990;2023-02-28T11:29:42;2.00;;;1.47;;
12110;SDS011;6119;52.372;8.990;2023-02-28T11:32:33;1.33;;;1.20;;
12110;SDS011;6119;52.372;8.990;2023-02-28T11:35:23;2.10;;;1.20;;
12110;SDS011;6119;52.372;8.990;2023-02-28T11:38:12;1.67;;;1.30;;
12110;SDS011;6119;52.372;8.990;2023-02-28T11:41:03;2.53;;;1.43;;
12110;SDS011;6119;52.372;8.990;2023-02-28T11:44:02;1.93;;;1.60;;
12110;SDS011;6119;52.372;8.990;2023-02-28T11:46:58;2.57;;;1.70;;
12110;SDS011;6119;52.372;8.990;2023-02-28T11:49:48;4.00;;;1.57;;
12110;SDS011;6119;52.372;8.990;2023-02-28T11:52:51;2.70;;;1.60;;
12110;SDS011;6119;52.372;8.990;2023-02-28T11:55:39;2.57;;;1.67;;
12110;SDS011;6119;52.372;8.990;2023-02-28T11:58:33;2.80;;;2.03;;
12110;SDS011;6119;52.372;8.990;2023-02-28T12:01:40;1.70;;;1.60;;
12110;SDS011;6119;52.372;8.990;2023-02-28T12:04:41;2.10;;;1.70;;
12110;SDS011;6119;52.372;8.990;2023-02-28T12:07:42;1.53;;;1.43;;
12110;SDS011;6119;52.372;8.990;2023-02-28T12:10:43;1.80;;;1.70;;
12110;SDS011;6119;52.372;8.990;2023-02-28T12:13:42;1.87;;;1.70;;
12110;SDS011;6119;52.372;8.990;2023-02-28T12:16:37;2.37;;;1.63;;
12110;SDS011;6119;52.372;8.990;2023-02-28T12:19:35;2.60;;;2.00;;
12110;SDS011;6119;52.372;8.990;2023-02-28T12:22:30;2.70;;;2.07;;
12110;SDS011;6119;52.372;8.990;2023-02-28T12:28:33;2.57;;;1.50;;
12110;SDS011;6119;52.372;8.990;2023-02-28T12:31:23;1.87;;;1.40;;
12110;SDS011;6119;52.372;8.990;2023-02-28T12:34:15;2.30;;;1.53;;
12110;SDS011;6119;52.372;8.990;2023-02-28T12:37:07;3.40;;;1.90;;
12110;SDS011;6119;52.372;8.990;2023-02-28T12:40:05;2.57;;;1.87;;
12110;SDS011;6119;52.372;8.990;2023-02-28T12:42:59;1.93;;;1.50;;
12110;SDS011;6119;52.372;8.990;2023-02-28T12:45:50;2.17;;;1.50;;
12110;SDS011;6119;52.372;8.990;2023-02-28T12:48:42;2.97;;;1.40;;
12110;SDS011;6119;52.372;8.990;2023-02-28T12:51:32;1.53;;;1.43;;
12110;SDS011;6119;52.372;8.990;2023-02-28T12:54:22;2.33;;;1.63;;
12110;SDS011;6119;52.372;8.990;2023-02-28T12:57:17;3.40;;;1.30;;
12110;SDS011;6119;52.372;8.990;2023-02-28T13:00:13;1.87;;;1.17;;
12110;SDS011;6119;52.372;8.990;2023-02-28T13:06:31;2.17;;;1.47;;
12110;SDS011;6119;52.372;8.990;2023-02-28T13:09:31;1.67;;;1.40;;
12110;SDS011;6119;52.372;8.990;2023-02-28T13:12:17;1.67;;;1.47;;
12110;SDS011;6119;52.372;8.990;2023-02-28T13:15:07;1.93;;;1.40;;
12110;SDS011;6119;52.372;8.990;2023-02-28T13:18:01;2.80;;;1.20;;
12110;SDS011;6119;52.372;8.990;2023-02-28T13:20:47;1.83;;;1.40;;
12110;SDS011;6119;52.372;8.990;2023-02-28T13:23:40;1.30;;;1.00;;
12110;SDS011;6119;52.372;8.990;2023-02-28T13:40:28;3.20;;;1.40;;
12110;SDS011;6119;52.372;8.990;2023-02-28T13:43:25;1.67;;;1.40;;
12110;SDS011;6119;52.372;8.990;2023-02-28T13:50:15;1.40;;;1.20;;
12110;SDS011;6119;52.372;8.990;2023-02-28T13:53:29;1.40;;;1.20;;
12110;SDS011;6119;52.372;8.990;2023-02-28T13:56:40;1.67;;;1.20;;
12110;SDS011;6119;52.372;8.990;2023-02-28T13:59:35;1.50;;;1.17;;
12110;SDS011;6119;52.372;8.990;2023-02-28T14:02:35;1.57;;;1.10;;
12110;SDS011;6119;52.372;8.990;2023-02-28T14:05:36;3.30;;;1.50;;
12110;SDS011;6119;52.372;8.990;2023-02-28T14:08:23;1.97;;;1.43;;
12110;SDS011;6119;52.372;8.990;2023-02-28T14:11:22;1.77;;;1.10;;
12110;SDS011;6119;52.372;8.990;2023-02-28T14:14:52;1.27;;;1.17;;
12110;SDS011;6119;52.372;8.990;2023-02-28T14:17:42;1.73;;;1.20;;
12110;SDS011;6119;52.372;8.990;2023-02-28T14:20:31;1.93;;;1.43;;
12110;SDS011;6119;52.372;8.990;2023-02-28T14:23:26;5.70;;;1.33;;
12110;SDS011;6119;52.372;8.990;2023-02-28T14:26:34;2.03;;;1.17;;
12110;SDS011;6119;52.372;8.990;2023-02-28T14:29:37;1.30;;;1.20;;
12110;SDS011;6119;52.372;8.990;2023-02-28T14:32:40;1.87;;;1.40;;
12110;SDS011;6119;52.372;8.990;2023-02-28T14:35:40;1.73;;;1.40;;
12110;SDS011;6119;52.372;8.990;2023-02-28T14:38:36;3.00;;;1.30;;
12110;SDS011;6119;52.372;8.990;2023-02-28T14:41:29;5.00;;;1.57;;
12110;SDS011;6119;52.372;8.990;2023-02-28T14:44:20;1.50;;;1.23;;
12110;SDS011;6119;52.372;8.990;2023-02-28T14:47:13;1.67;;;1.30;;
12110;SDS011;6119;52.372;8.990;2023-02-28T14:50:03;2.07;;;1.33;;
12110;SDS011;6119;52.372;8.990;2023-02-28T14:52:51;1.20;;;1.10;;
12110;SDS011;6119;52.372;8.990;2023-02-28T14:55:43;1.07;;;0.97;;
12110;SDS011;6119;52.372;8.990;2023-02-28T14:58:32;1.83;;;1.40;;
12110;SDS011;6119;52.372;8.990;2023-02-28T15:01:20;3.73;;;1.30;;
12110;SDS011;6119;52.372;8.990;2023-02-28T15:04:11;5.10;;;1.33;;
12110;SDS011;6119;52.372;8.990;2023-02-28T15:07:10;1.67;;;0.97;;
12110;SDS011;6119;52.372;8.990;2023-02-28T15:10:08;1.40;;;1.10;;
12110;SDS011;6119;52.372;8.990;2023-02-28T15:12:57;1.70;;;1.40;;
12110;SDS011;6119;52.372;8.990;2023-02-28T15:15:47;2.10;;;1.20;;
12110;SDS011;6119;52.372;8.990;2023-02-28T15:18:48;1.40;;;1.30;;
12110;SDS011;6119;52.372;8.990;2023-02-28T15:21:37;1.80;;;1.30;;
12110;SDS011;6119;52.372;8.990;2023-02-28T15:24:31;1.93;;;1.50;;
12110;SDS011;6119;52.372;8.990;2023-02-28T15:27:25;2.17;;;1.40;;
12110;SDS011;6119;52.372;8.990;2023-02-28T15:30:16;2.40;;;1.50;;
12110;SDS011;6119;52.372;8.990;2023-02-28T15:33:16;3.70;;;1.80;;
12110;SDS011;6119;52.372;8.990;2023-02-28T15:36:05;1.80;;;1.43;;
12110;SDS011;6119;52.372;8.990;2023-02-28T15:38:57;4.60;;;1.47;;
12110;SDS011;6119;52.372;8.990;2023-02-28T15:42:11;2.90;;;1.57;;
12110;SDS011;6119;52.372;8.990;2023-02-28T15:45:03;2.30;;;1.40;;
12110;SDS011;6119;52.372;8.990;2023-02-28T15:47:51;1.67;;;1.37;;
12110;SDS011;6119;52.372;8.990;2023-02-28T15:50:40;1.70;;;1.57;;
12110;SDS011;6119;52.372;8.990;2023-02-28T15:53:28;1.70;;;1.47;;
12110;SDS011;6119;52.372;8.990;2023-02-28T15:56:22;3.73;;;1.40;;
12110;SDS011;6119;52.372;8.990;2023-02-28T15:59:15;3.67;;;1.70;;
12110;SDS011;6119;52.372;8.990;2023-02-28T16:02:14;2.93;;;1.60;;
12110;SDS011;6119;52.372;8.990;2023-02-28T16:05:18;2.83;;;2.00;;
12110;SDS011;6119;52.372;8.990;2023-02-28T16:08:13;1.47;;;1.20;;
12110;SDS011;6119;52.372;8.990;2023-02-28T16:11:00;1.97;;;1.30;;
12110;SDS011;6119;52.372;8.990;2023-02-28T16:13:47;1.53;;;1.20;;
12110;SDS011;6119;52.372;8.990;2023-02-28T16:16:41;1.90;;;1.27;;
12110;SDS011;6119;52.372;8.990;2023-02-28T16:19:29;2.20;;;1.60;;
12110;SDS011;6119;52.372;8.990;2023-02-28T16:22:18;2.03;;;1.43;;
12110;SDS011;6119;52.372;8.990;2023-02-28T16:25:05;2.10;;;1.20;;
12110;SDS011;6119;52.372;8.990;2023-02-28T16:27:52;2.27;;;1.80;;
12110;SDS011;6119;52.372;8.990;2023-02-28T16:30:42;1.90;;;1.40;;
12110;SDS011;6119;52.372;8.990;2023-02-28T16:33:30;2.07;;;1.43;;
12110;SDS011;6119;52.372;8.990;2023-02-28T16:36:18;3.33;;;2.17;;
12110;SDS011;6119;52.372;8.990;2023-02-28T16:39:08;3.00;;;2.70;;
12110;SDS011;6119;52.372;8.990;2023-02-28T16:41:54;3.77;;;2.50;;
12110;SDS011;6119;52.372;8.990;2023-02-28T16:44:41;3.97;;;2.30;;
12110;SDS011;6119;52.372;8.990;2023-02-28T16:47:28;1.93;;;1.67;;
12110;SDS011;6119;52.372;8.990;2023-02-28T16:50:19;1.63;;;1.47;;
12110;SDS011;6119;52.372;8.990;2023-02-28T16:53:07;2.50;;;1.70;;
12110;SDS011;6119;52.372;8.990;2023-02-28T16:55:53;3.57;;;2.67;;
12110;SDS011;6119;52.372;8.990;2023-02-28T16:58:40;4.43;;;3.30;;
12110;SDS011;6119;52.372;8.990;2023-02-28T17:01:27;5.53;;;3.20;;
12110;SDS011;6119;52.372;8.990;2023-02-28T17:04:14;5.37;;;3.40;;
12110;SDS011;6119;52.372;8.990;2023-02-28T17:07:02;15.77;;;4.37;;
12110;SDS011;6119;52.372;8.990;2023-02-28T17:09:48;4.27;;;2.70;;
12110;SDS011;6119;52.372;8.990;2023-02-28T17:12:35;3.03;;;2.47;;
12110;SDS011;6119;52.372;8.990;2023-02-28T17:15:21;3.00;;;1.80;;
12110;SDS011;6119;52.372;8.990;2023-02-28T17:18:08;2.13;;;1.80;;
12110;SDS011;6119;52.372;8.990;2023-02-28T17:20:59;1.77;;;1.67;;
12110;SDS011;6119;52.372;8.990;2023-02-28T17:23:47;3.00;;;2.30;;
12110;SDS011;6119;52.372;8.990;2023-02-28T17:26:34;2.77;;;1.90;;
12110;SDS011;6119;52.372;8.990;2023-02-28T17:29:21;2.67;;;1.80;;
12110;SDS011;6119;52.372;8.990;2023-02-28T17:32:09;2.33;;;1.73;;
12110;SDS011;6119;52.372;8.990;2023-02-28T17:35:03;4.27;;;1.83;;
12110;SDS011;6119;52.372;8.990;2023-02-28T17:37:50;1.77;;;1.47;;
12110;SDS011;6119;52.372;8.990;2023-02-28T17:40:38;3.93;;;1.97;;
12110;SDS011;6119;52.372;8.990;2023-02-28T17:43:26;3.17;;;1.60;;
12110;SDS011;6119;52.372;8.990;2023-02-28T17:46:14;1.93;;;1.40;;
12110;SDS011;6119;52.372;8.990;2023-02-28T17:49:05;2.53;;;1.90;;
12110;SDS011;6119;52.372;8.990;2023-02-28T17:51:51;2.27;;;1.67;;
12110;SDS011;6119;52.372;8.990;2023-02-28T17:54:38;2.07;;;1.77;;